sensor_id;sensor_type;location;lat;lon;timestamp;temperature;humidity
2220;DHT22;1116;51.502;7.414;2023-09-19T00:01:08;18.00;62.30
2220;DHT22;1116;51.502;7.414;2023-09-19T00:03:40;17.90;61.10
2220;DHT22;1116;51.502;7.414;2023-09-19T00:06:11;17.90;62.30
2220;DHT22;1116;51.502;7.414;2023-09-19T00:08:43;17.90;60.70
2220;DHT22;1116;51.502;7.414;2023-09-19T00:11:18;17.90;59.50
2220;DHT22;1116;51.502;7.414;2023-09-19T00:13:49;18.00;60.00
2220;DHT22;1116;51.502;7.414;2023-09-19T00:16:20;18.00;59.90
2220;DHT22;1116;51.502;7.414;2023-09-19T00:18:51;17.90;59.50
2220;DHT22;1116;51.502;7.414;2023-09-19T00:21:23;17.80;58.10
2220;DHT22;1116;51.502;7.414;2023-09-19T00:23:54;17.80;57.20
2220;DHT22;1116;51.502;7.414;2023-09-19T00:26:27;17.80;59.30
2220;DHT22;1116;51.502;7.414;2023-09-19T00:28:58;17.70;60.00
2220;DHT22;1116;51.502;7.414;2023-09-19T00:31:32;17.80;60.00
2220;DHT22;1116;51.502;7.414;2023-09-19T00:34:05;17.70;58.10
2220;DHT22;1116;51.502;7.414;2023-09-19T00:36:38;17.70;59.00
2220;DHT22;1116;51.502;7.414;2023-09-19T00:39:11;17.70;57.80
2220;DHT22;1116;51.502;7.414;2023-09-19T00:41:44;17.60;58.30
2220;DHT22;1116;51.502;7.414;2023-09-19T00:44:15;17.60;57.20
2220;DHT22;1116;51.502;7.414;2023-09-19T00:46:48;17.60;56.50
2220;DHT22;1116;51.502;7.414;2023-09-19T00:49:19;17.50;57.00
2220;DHT22;1116;51.502;7.414;2023-09-19T00:51:50;17.40;56.20
2220;DHT22;1116;51.502;7.414;2023-09-19T00:54:22;17.40;55.60
2220;DHT22;1116;51.502;7.414;2023-09-19T00:56:56;17.30;54.40
2220;DHT22;1116;51.502;7.414;2023-09-19T00:59:27;17.50;56.40
2220;DHT22;1116;51.502;7.414;2023-09-19T01:01:58;17.40;55.50
2220;DHT22;1116;51.502;7.414;2023-09-19T01:04:30;17.40;54.60
2220;DHT22;1116;51.502;7.414;2023-09-19T01:07:01;17.40;54.00
2220;DHT22;1116;51.502;7.414;2023-09-19T01:09:32;17.40;54.20
2220;DHT22;1116;51.502;7.414;2023-09-19T01:12:06;17.40;52.80
2220;DHT22;1116;51.502;7.414;2023-09-19T01:14:41;17.40;53.70
2220;DHT22;1116;51.502;7.414;2023-09-19T01:17:16;17.30;54.20
2220;DHT22;1116;51.502;7.414;2023-09-19T01:20:03;17.30;52.90
2220;DHT22;1116;51.502;7.414;2023-09-19T01:22:44;17.30;53.50
2220;DHT22;1116;51.502;7.414;2023-09-19T01:25:33;17.20;53.30
2220;DHT22;1116;51.502;7.414;2023-09-19T01:28:30;17.20;53.00
2220;DHT22;1116;51.502;7.414;2023-09-19T01:31:09;17.20;52.60
2220;DHT22;1116;51.502;7.414;2023-09-19T01:33:55;17.20;51.90
2220;DHT22;1116;51.502;7.414;2023-09-19T01:36:33;17.20;52.00
2220;DHT22;1116;51.502;7.414;2023-09-19T01:39:06;17.10;51.50
2220;DHT22;1116;51.502;7.414;2023-09-19T01:41:51;17.20;54.00
2220;DHT22;1116;51.502;7.414;2023-09-19T01:44:29;17.10;50.90
2220;DHT22;1116;51.502;7.414;2023-09-19T01:47:07;17.20;52.00
2220;DHT22;1116;51.502;7.414;2023-09-19T01:49:44;16.90;52.30
2220;DHT22;1116;51.502;7.414;2023-09-19T01:52:23;17.00;50.60
2220;DHT22;1116;51.502;7.414;2023-09-19T01:55:00;17.10;52.00
2220;DHT22;1116;51.502;7.414;2023-09-19T01:57:36;17.10;53.30
2220;DHT22;1116;51.502;7.414;2023-09-19T02:00:12;17.10;49.80
2220;DHT22;1116;51.502;7.414;2023-09-19T02:02:46;17.10;53.00
2220;DHT22;1116;51.502;7.414;2023-09-19T02:05:22;17.10;51.60
2220;DHT22;1116;51.502;7.414;2023-09-19T02:07:55;17.00;51.60
2220;DHT22;1116;51.502;7.414;2023-09-19T02:10:26;17.00;50.90
2220;DHT22;1116;51.502;7.414;2023-09-19T02:12:57;16.90;49.60
2220;DHT22;1116;51.502;7.414;2023-09-19T02:15:32;16.90;50.20
2220;DHT22;1116;51.502;7.414;2023-09-19T02:18:06;16.90;51.00
2220;DHT22;1116;51.502;7.414;2023-09-19T02:20:37;17.00;49.80
2220;DHT22;1116;51.502;7.414;2023-09-19T02:23:09;16.90;49.20
2220;DHT22;1116;51.502;7.414;2023-09-19T02:25:40;17.00;49.70
2220;DHT22;1116;51.502;7.414;2023-09-19T02:28:12;16.90;49.60
2220;DHT22;1116;51.502;7.414;2023-09-19T02:30:43;16.90;49.60
2220;DHT22;1116;51.502;7.414;2023-09-19T02:33:21;16.90;49.60
2220;DHT22;1116;51.502;7.414;2023-09-19T02:35:54;17.00;49.70
2220;DHT22;1116;51.502;7.414;2023-09-19T02:38:25;16.90;49.10
2220;DHT22;1116;51.502;7.414;2023-09-19T02:40:57;16.80;48.30
2220;DHT22;1116;51.502;7.414;2023-09-19T02:43:28;16.90;49.60
2220;DHT22;1116;51.502;7.414;2023-09-19T02:45:59;16.90;49.60
2220;DHT22;1116;51.502;7.414;2023-09-19T02:48:33;16.70;48.60
2220;DHT22;1116;51.502;7.414;2023-09-19T02:51:05;16.80;49.50
2220;DHT22;1116;51.502;7.414;2023-09-19T02:53:36;16.80;48.20
2220;DHT22;1116;51.502;7.414;2023-09-19T02:56:07;16.80;49.60
2220;DHT22;1116;51.502;7.414;2023-09-19T02:58:44;16.80;49.50
2220;DHT22;1116;51.502;7.414;2023-09-19T03:01:16;16.80;50.30
2220;DHT22;1116;51.502;7.414;2023-09-19T03:03:50;16.80;49.60
2220;DHT22;1116;51.502;7.414;2023-09-19T03:06:21;16.80;48.40
2220;DHT22;1116;51.502;7.414;2023-09-19T03:08:52;16.80;49.50
2220;DHT22;1116;51.502;7.414;2023-09-19T03:11:24;16.80;49.10
2220;DHT22;1116;51.502;7.414;2023-09-19T03:13:55;16.80;47.80
2220;DHT22;1116;51.502;7.414;2023-09-19T03:16:27;16.80;48.00
2220;DHT22;1116;51.502;7.414;2023-09-19T03:19:00;16.70;48.40
2220;DHT22;1116;51.502;7.414;2023-09-19T03:21:31;16.70;48.60
2220;DHT22;1116;51.502;7.414;2023-09-19T03:24:03;16.70;47.70
2220;DHT22;1116;51.502;7.414;2023-09-19T03:26:35;16.70;49.40
2220;DHT22;1116;51.502;7.414;2023-09-19T03:29:06;16.70;48.80
2220;DHT22;1116;51.502;7.414;2023-09-19T03:31:37;16.70;49.40
2220;DHT22;1116;51.502;7.414;2023-09-19T03:34:11;16.70;48.30
2220;DHT22;1116;51.502;7.414;2023-09-19T03:36:42;16.60;45.30
2220;DHT22;1116;51.502;7.414;2023-09-19T03:39:14;16.60;46.90
2220;DHT22;1116;51.502;7.414;2023-09-19T03:41:45;16.60;46.20
2220;DHT22;1116;51.502;7.414;2023-09-19T03:44:17;16.60;44.10
2220;DHT22;1116;51.502;7.414;2023-09-19T03:46:48;16.60;45.30
2220;DHT22;1116;51.502;7.414;2023-09-19T03:49:22;16.60;43.80
2220;DHT22;1116;51.502;7.414;2023-09-19T03:51:53;16.60;44.60
2220;DHT22;1116;51.502;7.414;2023-09-19T03:54:24;16.60;45.80
2220;DHT22;1116;51.502;7.414;2023-09-19T03:56:55;16.60;45.60
2220;DHT22;1116;51.502;7.414;2023-09-19T03:59:26;16.60;44.50
2220;DHT22;1116;51.502;7.414;2023-09-19T04:01:57;16.60;44.80
2220;DHT22;1116;51.502;7.414;2023-09-19T04:04:32;16.60;45.10
2220;DHT22;1116;51.502;7.414;2023-09-19T04:07:03;16.50;43.60
2220;DHT22;1116;51.502;7.414;2023-09-19T04:09:34;16.50;43.10
2220;DHT22;1116;51.502;7.414;2023-09-19T04:12:05;16.60;44.60
2220;DHT22;1116;51.502;7.414;2023-09-19T04:14:38;16.50;44.90
2220;DHT22;1116;51.502;7.414;2023-09-19T04:17:09;16.40;43.60
2220;DHT22;1116;51.502;7.414;2023-09-19T04:19:42;16.50;44.80
2220;DHT22;1116;51.502;7.414;2023-09-19T04:22:13;16.50;44.50
2220;DHT22;1116;51.502;7.414;2023-09-19T04:24:44;16.40;44.40
2220;DHT22;1116;51.502;7.414;2023-09-19T04:27:15;16.40;43.90
2220;DHT22;1116;51.502;7.414;2023-09-19T04:29:46;16.50;43.90
2220;DHT22;1116;51.502;7.414;2023-09-19T04:32:18;16.50;45.20
2220;DHT22;1116;51.502;7.414;2023-09-19T04:34:52;16.40;43.00
2220;DHT22;1116;51.502;7.414;2023-09-19T04:37:27;16.40;45.40
2220;DHT22;1116;51.502;7.414;2023-09-19T04:39:58;16.40;45.80
2220;DHT22;1116;51.502;7.414;2023-09-19T04:42:32;16.40;44.30
2220;DHT22;1116;51.502;7.414;2023-09-19T04:45:03;16.40;45.40
2220;DHT22;1116;51.502;7.414;2023-09-19T04:47:35;16.40;44.40
2220;DHT22;1116;51.502;7.414;2023-09-19T04:50:10;16.70;45.10
2220;DHT22;1116;51.502;7.414;2023-09-19T04:52:42;16.40;45.40
2220;DHT22;1116;51.502;7.414;2023-09-19T04:55:13;16.40;44.10
2220;DHT22;1116;51.502;7.414;2023-09-19T04:57:47;16.40;44.90
2220;DHT22;1116;51.502;7.414;2023-09-19T05:00:21;16.40;45.30
2220;DHT22;1116;51.502;7.414;2023-09-19T05:02:54;16.40;45.80
2220;DHT22;1116;51.502;7.414;2023-09-19T05:05:29;16.40;45.10
2220;DHT22;1116;51.502;7.414;2023-09-19T05:08:03;16.50;45.80
2220;DHT22;1116;51.502;7.414;2023-09-19T05:10:35;16.40;45.10
2220;DHT22;1116;51.502;7.414;2023-09-19T05:13:06;16.40;46.70
2220;DHT22;1116;51.502;7.414;2023-09-19T05:15:38;16.40;46.00
2220;DHT22;1116;51.502;7.414;2023-09-19T05:18:09;16.40;45.90
2220;DHT22;1116;51.502;7.414;2023-09-19T05:20:43;16.40;44.80
2220;DHT22;1116;51.502;7.414;2023-09-19T05:23:14;16.50;45.80
2220;DHT22;1116;51.502;7.414;2023-09-19T05:25:45;16.40;45.80
2220;DHT22;1116;51.502;7.414;2023-09-19T05:28:16;16.40;45.30
2220;DHT22;1116;51.502;7.414;2023-09-19T05:30:47;16.40;45.80
2220;DHT22;1116;51.502;7.414;2023-09-19T05:33:19;16.40;46.60
2220;DHT22;1116;51.502;7.414;2023-09-19T05:35:52;16.50;45.80
2220;DHT22;1116;51.502;7.414;2023-09-19T05:38:24;16.40;45.10
2220;DHT22;1116;51.502;7.414;2023-09-19T05:40:55;16.40;45.80
2220;DHT22;1116;51.502;7.414;2023-09-19T05:43:26;16.50;46.50
2220;DHT22;1116;51.502;7.414;2023-09-19T05:45:59;16.40;46.60
2220;DHT22;1116;51.502;7.414;2023-09-19T05:48:31;16.40;45.50
2220;DHT22;1116;51.502;7.414;2023-09-19T05:51:04;16.40;46.50
2220;DHT22;1116;51.502;7.414;2023-09-19T05:53:35;16.40;46.20
2220;DHT22;1116;51.502;7.414;2023-09-19T05:56:07;16.40;45.40
2220;DHT22;1116;51.502;7.414;2023-09-19T05:58:39;16.40;46.00
2220;DHT22;1116;51.502;7.414;2023-09-19T06:01:12;16.40;46.80
2220;DHT22;1116;51.502;7.414;2023-09-19T06:03:43;16.40;45.50
2220;DHT22;1116;51.502;7.414;2023-09-19T06:06:17;16.50;44.60
2220;DHT22;1116;51.502;7.414;2023-09-19T06:08:49;16.40;45.80
2220;DHT22;1116;51.502;7.414;2023-09-19T06:11:20;16.60;46.10
2220;DHT22;1116;51.502;7.414;2023-09-19T06:13:54;16.60;43.90
2220;DHT22;1116;51.502;7.414;2023-09-19T06:16:25;16.60;44.00
2220;DHT22;1116;51.502;7.414;2023-09-19T06:18:56;16.60;44.30
2220;DHT22;1116;51.502;7.414;2023-09-19T06:21:30;16.70;45.20
2220;DHT22;1116;51.502;7.414;2023-09-19T06:24:02;16.70;44.10
2220;DHT22;1116;51.502;7.414;2023-09-19T06:26:33;16.70;44.50
2220;DHT22;1116;51.502;7.414;2023-09-19T06:29:05;16.80;44.00
2220;DHT22;1116;51.502;7.414;2023-09-19T06:31:38;16.80;44.10
2220;DHT22;1116;51.502;7.414;2023-09-19T06:34:10;16.80;44.20
2220;DHT22;1116;51.502;7.414;2023-09-19T06:36:45;16.90;43.50
2220;DHT22;1116;51.502;7.414;2023-09-19T06:39:17;16.80;43.90
2220;DHT22;1116;51.502;7.414;2023-09-19T06:41:50;16.90;43.50
2220;DHT22;1116;51.502;7.414;2023-09-19T06:44:21;16.90;43.50
2220;DHT22;1116;51.502;7.414;2023-09-19T06:46:52;16.90;44.00
2220;DHT22;1116;51.502;7.414;2023-09-19T06:49:23;17.00;44.20
2220;DHT22;1116;51.502;7.414;2023-09-19T06:51:57;16.90;43.10
2220;DHT22;1116;51.502;7.414;2023-09-19T06:54:30;16.90;43.50
2220;DHT22;1116;51.502;7.414;2023-09-19T06:57:02;16.90;43.50
2220;DHT22;1116;51.502;7.414;2023-09-19T06:59:33;17.10;44.30
2220;DHT22;1116;51.502;7.414;2023-09-19T07:02:04;17.00;42.50
2220;DHT22;1116;51.502;7.414;2023-09-19T07:04:36;17.10;41.90
2220;DHT22;1116;51.502;7.414;2023-09-19T07:07:10;17.20;43.80
2220;DHT22;1116;51.502;7.414;2023-09-19T07:09:41;17.10;42.10
2220;DHT22;1116;51.502;7.414;2023-09-19T07:12:13;17.20;43.80
2220;DHT22;1116;51.502;7.414;2023-09-19T07:14:44;17.20;41.50
2220;DHT22;1116;51.502;7.414;2023-09-19T07:17:15;17.20;42.50
2220;DHT22;1116;51.502;7.414;2023-09-19T07:19:47;17.30;43.30
2220;DHT22;1116;51.502;7.414;2023-09-19T07:22:21;17.50;42.10
2220;DHT22;1116;51.502;7.414;2023-09-19T07:24:52;17.40;41.70
2220;DHT22;1116;51.502;7.414;2023-09-19T07:27:23;17.30;42.10
2220;DHT22;1116;51.502;7.414;2023-09-19T07:29:54;17.40;42.30
2220;DHT22;1116;51.502;7.414;2023-09-19T07:32:25;17.40;42.20
2220;DHT22;1116;51.502;7.414;2023-09-19T07:34:57;17.50;42.90
2220;DHT22;1116;51.502;7.414;2023-09-19T07:37:31;17.50;42.00
2220;DHT22;1116;51.502;7.414;2023-09-19T07:40:04;17.50;43.30
2220;DHT22;1116;51.502;7.414;2023-09-19T07:42:37;17.60;41.60
2220;DHT22;1116;51.502;7.414;2023-09-19T07:45:09;17.60;43.00
2220;DHT22;1116;51.502;7.414;2023-09-19T07:47:43;17.70;42.20
2220;DHT22;1116;51.502;7.414;2023-09-19T07:50:15;17.80;42.10
2220;DHT22;1116;51.502;7.414;2023-09-19T07:52:50;17.80;41.70
2220;DHT22;1116;51.502;7.414;2023-09-19T07:55:24;17.90;41.30
2220;DHT22;1116;51.502;7.414;2023-09-19T07:57:55;17.80;41.50
2220;DHT22;1116;51.502;7.414;2023-09-19T08:00:26;18.00;41.20
2220;DHT22;1116;51.502;7.414;2023-09-19T08:02:57;17.80;40.70
2220;DHT22;1116;51.502;7.414;2023-09-19T08:05:39;18.00;41.00
2220;DHT22;1116;51.502;7.414;2023-09-19T08:08:13;18.00;40.20
2220;DHT22;1116;51.502;7.414;2023-09-19T08:10:44;18.20;40.20
2220;DHT22;1116;51.502;7.414;2023-09-19T08:13:17;18.30;40.90
2220;DHT22;1116;51.502;7.414;2023-09-19T08:15:49;18.20;39.80
2220;DHT22;1116;51.502;7.414;2023-09-19T08:18:21;18.10;39.60
2220;DHT22;1116;51.502;7.414;2023-09-19T08:20:52;18.30;39.20
2220;DHT22;1116;51.502;7.414;2023-09-19T08:23:28;18.40;39.20
2220;DHT22;1116;51.502;7.414;2023-09-19T08:26:00;18.30;38.50
2220;DHT22;1116;51.502;7.414;2023-09-19T08:28:34;18.20;38.40
2220;DHT22;1116;51.502;7.414;2023-09-19T08:31:08;18.40;39.80
2220;DHT22;1116;51.502;7.414;2023-09-19T08:33:39;18.50;38.70
2220;DHT22;1116;51.502;7.414;2023-09-19T08:36:12;18.60;39.80
2220;DHT22;1116;51.502;7.414;2023-09-19T08:38:46;18.60;38.80
2220;DHT22;1116;51.502;7.414;2023-09-19T08:41:17;18.70;38.90
2220;DHT22;1116;51.502;7.414;2023-09-19T08:43:48;18.80;39.00
2220;DHT22;1116;51.502;7.414;2023-09-19T08:46:20;18.70;38.90
2220;DHT22;1116;51.502;7.414;2023-09-19T08:48:57;18.80;39.00
2220;DHT22;1116;51.502;7.414;2023-09-19T08:51:33;18.90;37.80
2220;DHT22;1116;51.502;7.414;2023-09-19T08:54:16;19.10;38.60
2220;DHT22;1116;51.502;7.414;2023-09-19T08:56:52;19.10;38.20
2220;DHT22;1116;51.502;7.414;2023-09-19T08:59:24;19.30;36.80
2220;DHT22;1116;51.502;7.414;2023-09-19T09:01:56;19.30;35.40
2220;DHT22;1116;51.502;7.414;2023-09-19T09:04:28;19.30;35.80
2220;DHT22;1116;51.502;7.414;2023-09-19T09:06:59;19.50;36.30
2220;DHT22;1116;51.502;7.414;2023-09-19T09:09:34;19.90;36.80
2220;DHT22;1116;51.502;7.414;2023-09-19T09:12:05;20.00;36.20
2220;DHT22;1116;51.502;7.414;2023-09-19T09:14:36;20.00;33.80
2220;DHT22;1116;51.502;7.414;2023-09-19T09:17:07;20.00;33.90
2220;DHT22;1116;51.502;7.414;2023-09-19T09:19:38;19.70;33.10
2220;DHT22;1116;51.502;7.414;2023-09-19T09:22:11;19.90;33.70
2220;DHT22;1116;51.502;7.414;2023-09-19T09:24:56;20.10;33.40
2220;DHT22;1116;51.502;7.414;2023-09-19T09:27:31;20.30;33.30
2220;DHT22;1116;51.502;7.414;2023-09-19T09:30:02;20.30;32.00
2220;DHT22;1116;51.502;7.414;2023-09-19T09:32:35;20.50;32.00
2220;DHT22;1116;51.502;7.414;2023-09-19T09:35:22;21.20;29.20
2220;DHT22;1116;51.502;7.414;2023-09-19T09:37:59;21.50;29.20
2220;DHT22;1116;51.502;7.414;2023-09-19T09:40:48;21.80;28.40
2220;DHT22;1116;51.502;7.414;2023-09-19T09:43:28;22.00;26.60
2220;DHT22;1116;51.502;7.414;2023-09-19T09:46:07;21.80;28.10
2220;DHT22;1116;51.502;7.414;2023-09-19T09:48:58;22.10;26.20
2220;DHT22;1116;51.502;7.414;2023-09-19T09:51:48;22.20;25.70
2220;DHT22;1116;51.502;7.414;2023-09-19T09:54:29;22.40;26.20
2220;DHT22;1116;51.502;7.414;2023-09-19T09:57:07;22.50;25.80
2220;DHT22;1116;51.502;7.414;2023-09-19T09:59:49;23.60;24.90
2220;DHT22;1116;51.502;7.414;2023-09-19T10:02:25;23.30;22.50
2220;DHT22;1116;51.502;7.414;2023-09-19T10:04:58;23.20;23.20
2220;DHT22;1116;51.502;7.414;2023-09-19T10:07:35;23.10;23.70
2220;DHT22;1116;51.502;7.414;2023-09-19T10:10:11;23.60;22.20
2220;DHT22;1116;51.502;7.414;2023-09-19T10:12:51;23.20;22.00
2220;DHT22;1116;51.502;7.414;2023-09-19T10:15:31;23.40;22.10
2220;DHT22;1116;51.502;7.414;2023-09-19T10:18:05;23.30;21.40
2220;DHT22;1116;51.502;7.414;2023-09-19T10:20:36;23.70;22.20
2220;DHT22;1116;51.502;7.414;2023-09-19T10:23:10;24.60;21.30
2220;DHT22;1116;51.502;7.414;2023-09-19T10:25:43;24.80;19.90
2220;DHT22;1116;51.502;7.414;2023-09-19T10:28:17;23.70;21.00
2220;DHT22;1116;51.502;7.414;2023-09-19T10:30:51;22.90;21.90
2220;DHT22;1116;51.502;7.414;2023-09-19T10:33:23;23.20;20.70
2220;DHT22;1116;51.502;7.414;2023-09-19T10:35:58;23.00;22.90
2220;DHT22;1116;51.502;7.414;2023-09-19T10:38:30;22.20;24.70
2220;DHT22;1116;51.502;7.414;2023-09-19T10:41:03;22.00;23.90
2220;DHT22;1116;51.502;7.414;2023-09-19T10:43:38;21.70;24.70
2220;DHT22;1116;51.502;7.414;2023-09-19T10:46:12;22.00;24.50
2220;DHT22;1116;51.502;7.414;2023-09-19T10:48:44;22.30;25.10
2220;DHT22;1116;51.502;7.414;2023-09-19T10:51:16;22.90;24.40
2220;DHT22;1116;51.502;7.414;2023-09-19T10:53:52;22.90;22.30
2220;DHT22;1116;51.502;7.414;2023-09-19T10:56:27;23.80;21.50
2220;DHT22;1116;51.502;7.414;2023-09-19T10:59:10;24.90;21.50
2220;DHT22;1116;51.502;7.414;2023-09-19T11:01:42;24.90;17.10
2220;DHT22;1116;51.502;7.414;2023-09-19T11:04:22;24.90;17.30
2220;DHT22;1116;51.502;7.414;2023-09-19T11:07:02;25.10;17.00
2220;DHT22;1116;51.502;7.414;2023-09-19T11:09:42;25.20;18.40
2220;DHT22;1116;51.502;7.414;2023-09-19T11:21:39;26.50;14.90
2220;DHT22;1116;51.502;7.414;2023-09-19T11:27:10;27.00;12.10
2220;DHT22;1116;51.502;7.414;2023-09-19T11:29:46;27.00;13.30
2220;DHT22;1116;51.502;7.414;2023-09-19T11:32:17;27.00;12.50
2220;DHT22;1116;51.502;7.414;2023-09-19T11:41:38;27.40;11.30
2220;DHT22;1116;51.502;7.414;2023-09-19T11:47:08;27.60;11.10
2220;DHT22;1116;51.502;7.414;2023-09-19T11:49:41;27.90;10.90
2220;DHT22;1116;51.502;7.414;2023-09-19T11:52:18;27.20;12.10
2220;DHT22;1116;51.502;7.414;2023-09-19T11:54:54;26.50;12.40
2220;DHT22;1116;51.502;7.414;2023-09-19T11:57:26;26.20;13.60
2220;DHT22;1116;51.502;7.414;2023-09-19T11:59:58;25.90;15.60
2220;DHT22;1116;51.502;7.414;2023-09-19T12:02:34;25.40;15.10
2220;DHT22;1116;51.502;7.414;2023-09-19T12:05:10;25.30;15.70
2220;DHT22;1116;51.502;7.414;2023-09-19T12:07:46;24.80;16.10
2220;DHT22;1116;51.502;7.414;2023-09-19T12:10:17;24.20;18.50
2220;DHT22;1116;51.502;7.414;2023-09-19T12:12:50;24.30;17.70
2220;DHT22;1116;51.502;7.414;2023-09-19T12:15:24;23.90;17.90
2220;DHT22;1116;51.502;7.414;2023-09-19T12:18:02;23.60;18.20
2220;DHT22;1116;51.502;7.414;2023-09-19T12:20:41;23.50;20.00
2220;DHT22;1116;51.502;7.414;2023-09-19T12:23:20;23.70;20.60
2220;DHT22;1116;51.502;7.414;2023-09-19T12:25:51;24.10;18.40
2220;DHT22;1116;51.502;7.414;2023-09-19T12:28:26;24.00;18.80
2220;DHT22;1116;51.502;7.414;2023-09-19T12:31:05;23.90;18.40
2220;DHT22;1116;51.502;7.414;2023-09-19T12:33:37;24.20;19.20
2220;DHT22;1116;51.502;7.414;2023-09-19T12:36:19;24.40;19.70
2220;DHT22;1116;51.502;7.414;2023-09-19T12:38:55;24.10;16.30
2220;DHT22;1116;51.502;7.414;2023-09-19T12:41:27;24.10;17.80
2220;DHT22;1116;51.502;7.414;2023-09-19T12:43:58;24.30;18.00
2220;DHT22;1116;51.502;7.414;2023-09-19T12:46:30;24.40;17.90
2220;DHT22;1116;51.502;7.414;2023-09-19T12:49:16;24.30;16.40
2220;DHT22;1116;51.502;7.414;2023-09-19T12:51:48;24.30;16.40
2220;DHT22;1116;51.502;7.414;2023-09-19T12:54:22;24.40;16.70
2220;DHT22;1116;51.502;7.414;2023-09-19T12:56:54;24.60;15.90
2220;DHT22;1116;51.502;7.414;2023-09-19T12:59:29;24.80;15.20
2220;DHT22;1116;51.502;7.414;2023-09-19T13:02:03;25.20;15.60
2220;DHT22;1116;51.502;7.414;2023-09-19T13:04:42;25.20;15.60
2220;DHT22;1116;51.502;7.414;2023-09-19T13:07:39;24.90;13.80
2220;DHT22;1116;51.502;7.414;2023-09-19T13:10:16;25.00;13.80
2220;DHT22;1116;51.502;7.414;2023-09-19T13:12:52;25.10;15.70
2220;DHT22;1116;51.502;7.414;2023-09-19T13:15:24;25.30;12.70
2220;DHT22;1116;51.502;7.414;2023-09-19T13:17:58;25.10;12.20
2220;DHT22;1116;51.502;7.414;2023-09-19T13:20:30;25.10;12.30
2220;DHT22;1116;51.502;7.414;2023-09-19T13:23:07;24.90;11.30
2220;DHT22;1116;51.502;7.414;2023-09-19T13:25:59;24.70;13.80
2220;DHT22;1116;51.502;7.414;2023-09-19T13:28:33;24.60;14.80
2220;DHT22;1116;51.502;7.414;2023-09-19T13:31:04;24.50;13.60
2220;DHT22;1116;51.502;7.414;2023-09-19T13:33:35;24.50;13.40
2220;DHT22;1116;51.502;7.414;2023-09-19T13:36:13;24.30;14.40
2220;DHT22;1116;51.502;7.414;2023-09-19T13:38:46;23.90;15.40
2220;DHT22;1116;51.502;7.414;2023-09-19T13:41:20;23.70;15.30
2220;DHT22;1116;51.502;7.414;2023-09-19T13:43:51;23.40;15.00
2220;DHT22;1116;51.502;7.414;2023-09-19T13:46:26;23.20;16.10
2220;DHT22;1116;51.502;7.414;2023-09-19T13:49:01;23.40;17.00
2220;DHT22;1116;51.502;7.414;2023-09-19T13:51:32;23.40;18.00
2220;DHT22;1116;51.502;7.414;2023-09-19T13:54:03;23.20;18.50
2220;DHT22;1116;51.502;7.414;2023-09-19T13:56:37;23.00;16.80
2220;DHT22;1116;51.502;7.414;2023-09-19T13:59:08;22.90;17.90
2220;DHT22;1116;51.502;7.414;2023-09-19T14:01:39;22.60;17.80
2220;DHT22;1116;51.502;7.414;2023-09-19T14:04:10;22.50;18.60
2220;DHT22;1116;51.502;7.414;2023-09-19T14:06:41;22.60;18.40
2220;DHT22;1116;51.502;7.414;2023-09-19T14:09:13;22.40;18.60
2220;DHT22;1116;51.502;7.414;2023-09-19T14:11:49;22.80;19.80
2220;DHT22;1116;51.502;7.414;2023-09-19T14:14:20;22.80;18.90
2220;DHT22;1116;51.502;7.414;2023-09-19T14:16:52;22.60;18.70
2220;DHT22;1116;51.502;7.414;2023-09-19T14:19:24;22.60;18.30
2220;DHT22;1116;51.502;7.414;2023-09-19T14:21:54;22.60;19.70
2220;DHT22;1116;51.502;7.414;2023-09-19T14:24:27;22.50;19.10
2220;DHT22;1116;51.502;7.414;2023-09-19T14:27:00;22.40;19.50
2220;DHT22;1116;51.502;7.414;2023-09-19T14:29:31;22.30;19.50
2220;DHT22;1116;51.502;7.414;2023-09-19T14:32:02;22.30;19.50
2220;DHT22;1116;51.502;7.414;2023-09-19T14:34:34;22.20;20.60
2220;DHT22;1116;51.502;7.414;2023-09-19T14:37:10;22.20;19.40
2220;DHT22;1116;51.502;7.414;2023-09-19T14:39:41;22.20;20.70
2220;DHT22;1116;51.502;7.414;2023-09-19T14:42:16;22.10;20.80
2220;DHT22;1116;51.502;7.414;2023-09-19T14:44:47;22.10;21.40
2220;DHT22;1116;51.502;7.414;2023-09-19T14:47:18;22.20;21.00
2220;DHT22;1116;51.502;7.414;2023-09-19T14:49:49;22.20;21.60
2220;DHT22;1116;51.502;7.414;2023-09-19T14:52:20;22.10;20.60
2220;DHT22;1116;51.502;7.414;2023-09-19T14:54:51;22.00;21.40
2220;DHT22;1116;51.502;7.414;2023-09-19T14:57:24;21.90;21.60
2220;DHT22;1116;51.502;7.414;2023-09-19T14:59:55;22.00;21.90
2220;DHT22;1116;51.502;7.414;2023-09-19T15:02:26;22.00;22.10
2220;DHT22;1116;51.502;7.414;2023-09-19T15:04:58;21.90;21.80
2220;DHT22;1116;51.502;7.414;2023-09-19T15:07:29;21.90;22.10
2220;DHT22;1116;51.502;7.414;2023-09-19T15:10:00;21.90;23.00
2220;DHT22;1116;51.502;7.414;2023-09-19T15:12:37;21.90;22.50
2220;DHT22;1116;51.502;7.414;2023-09-19T15:15:09;21.90;22.60
2220;DHT22;1116;51.502;7.414;2023-09-19T15:17:40;21.90;23.00
2220;DHT22;1116;51.502;7.414;2023-09-19T15:20:12;21.80;22.90
2220;DHT22;1116;51.502;7.414;2023-09-19T15:22:45;21.90;23.50
2220;DHT22;1116;51.502;7.414;2023-09-19T15:25:17;21.80;23.30
2220;DHT22;1116;51.502;7.414;2023-09-19T15:27:51;21.60;24.10
2220;DHT22;1116;51.502;7.414;2023-09-19T15:30:22;21.60;24.20
2220;DHT22;1116;51.502;7.414;2023-09-19T15:32:53;21.50;24.20
2220;DHT22;1116;51.502;7.414;2023-09-19T15:35:24;21.40;24.00
2220;DHT22;1116;51.502;7.414;2023-09-19T15:37:55;21.40;24.00
2220;DHT22;1116;51.502;7.414;2023-09-19T15:40:28;21.30;24.30
2220;DHT22;1116;51.502;7.414;2023-09-19T15:43:01;21.30;23.90
2220;DHT22;1116;51.502;7.414;2023-09-19T15:45:32;21.20;24.90
2220;DHT22;1116;51.502;7.414;2023-09-19T15:48:03;21.10;24.60
2220;DHT22;1116;51.502;7.414;2023-09-19T15:50:35;21.20;25.60
2220;DHT22;1116;51.502;7.414;2023-09-19T15:53:06;21.20;25.20
2220;DHT22;1116;51.502;7.414;2023-09-19T15:55:38;21.30;24.70
2220;DHT22;1116;51.502;7.414;2023-09-19T15:58:13;21.30;25.90
2220;DHT22;1116;51.502;7.414;2023-09-19T16:00:45;21.30;24.70
2220;DHT22;1116;51.502;7.414;2023-09-19T16:03:16;21.40;24.90
2220;DHT22;1116;51.502;7.414;2023-09-19T16:05:49;21.40;25.20
2220;DHT22;1116;51.502;7.414;2023-09-19T16:08:20;21.40;24.20
2220;DHT22;1116;51.502;7.414;2023-09-19T16:10:51;21.40;24.00
2220;DHT22;1116;51.502;7.414;2023-09-19T16:13:24;21.30;24.60
2220;DHT22;1116;51.502;7.414;2023-09-19T16:15:56;21.30;24.70
2220;DHT22;1116;51.502;7.414;2023-09-19T16:18:28;21.20;25.20
2220;DHT22;1116;51.502;7.414;2023-09-19T16:21:03;21.20;25.00
2220;DHT22;1116;51.502;7.414;2023-09-19T16:23:36;21.10;24.60
2220;DHT22;1116;51.502;7.414;2023-09-19T16:26:07;21.20;24.90
2220;DHT22;1116;51.502;7.414;2023-09-19T16:28:43;21.20;25.60
2220;DHT22;1116;51.502;7.414;2023-09-19T16:31:15;21.10;25.60
2220;DHT22;1116;51.502;7.414;2023-09-19T16:33:47;21.00;25.80
2220;DHT22;1116;51.502;7.414;2023-09-19T16:36:19;21.00;25.50
2220;DHT22;1116;51.502;7.414;2023-09-19T16:38:50;20.90;25.60
2220;DHT22;1116;51.502;7.414;2023-09-19T16:41:22;20.90;26.10
2220;DHT22;1116;51.502;7.414;2023-09-19T16:43:56;20.90;25.70
2220;DHT22;1116;51.502;7.414;2023-09-19T16:46:28;20.80;25.90
2220;DHT22;1116;51.502;7.414;2023-09-19T16:48:59;20.80;26.40
2220;DHT22;1116;51.502;7.414;2023-09-19T16:51:31;20.80;26.70
2220;DHT22;1116;51.502;7.414;2023-09-19T16:54:03;20.80;25.90
2220;DHT22;1116;51.502;7.414;2023-09-19T16:56:35;20.80;25.80
2220;DHT22;1116;51.502;7.414;2023-09-19T16:59:09;20.80;25.90
2220;DHT22;1116;51.502;7.414;2023-09-19T17:01:41;20.80;27.00
2220;DHT22;1116;51.502;7.414;2023-09-19T17:04:12;20.80;26.20